Time;durP1;ratioP1;P1;durP2;ratioP2;P2;SDS_P1;SDS_P2;PMS_P1;PMS_P2;Temp;Humidity;BMP_temperature;BMP_pressure;BME280_temperature;BME280_humidity;BME280_pressure;Samples;Min_cycle;Max_cycle;Signal;HPM_P1;HPM_P2
2022/02/13 00:00:55;;;;;;;18.40;6.00;;;;;;;-6.55;70.77;99227.78;4996198;28;20042;-80
2022/02/13 00:03:21;;;;;;;10.60;5.97;;;;;;;-6.59;70.89;99237.34;4979052;28;20070;-82
2022/02/13 00:05:49;;;;;;;16.65;7.13;;;;;;;-6.71;71.45;99238.38;4994790;28;20042;-81
2022/02/13 00:08:16;;;;;;;19.75;6.07;;;;;;;-6.71;71.46;99230.56;4994480;28;20046;-78
2022/02/13 00:10:42;;;;;;;13.90;6.05;;;;;;;-6.73;71.27;99231.44;4946578;28;20058;-81
2022/02/13 00:13:08;;;;;;;19.52;6.05;;;;;;;-6.73;71.28;99236.66;4963236;28;20564;-81
2022/02/13 00:15:34;;;;;;;13.27;6.07;;;;;;;-6.75;71.41;99234.09;4994869;28;20092;-81
2022/02/13 00:18:00;;;;;;;15.70;6.32;;;;;;;-6.80;71.56;99230.69;4931113;28;20046;-80
2022/02/13 00:20:26;;;;;;;15.38;7.22;;;;;;;-6.82;71.50;99219.44;4995796;28;20082;-81
2022/02/13 00:22:52;;;;;;;17.15;6.38;;;;;;;-6.81;71.48;99218.56;4962525;28;20043;-81
2022/02/13 00:25:19;;;;;;;12.95;5.63;;;;;;;-6.97;71.61;99214.44;4994615;28;20054;-80
2022/02/13 00:27:45;;;;;;;77.82;6.88;;;;;;;-7.04;71.98;99215.38;4946610;28;20068;-80
2022/02/13 00:30:13;;;;;;;33.22;6.90;;;;;;;-6.99;71.98;99214.47;4978744;28;20061;-81
2022/02/13 00:32:40;;;;;;;26.25;7.40;;;;;;;-7.10;72.06;99224.97;4946621;28;20109;-81
2022/02/13 00:35:07;;;;;;;28.42;7.65;;;;;;;-7.18;72.01;99216.41;4946222;28;20560;-82
2022/02/13 00:37:33;;;;;;;16.80;7.03;;;;;;;-7.16;72.04;99219.81;4946214;28;20569;-80
2022/02/13 00:39:59;;;;;;;30.85;6.85;;;;;;;-7.16;72.09;99217.22;4962449;28;20086;-80
2022/02/13 00:42:25;;;;;;;19.88;6.43;;;;;;;-7.17;72.32;99207.72;4995691;28;20050;-81
2022/02/13 00:44:51;;;;;;;67.82;6.60;;;;;;;-7.15;72.67;99218.94;4930367;28;20050;-81
2022/02/13 00:47:17;;;;;;;36.03;6.15;;;;;;;-7.16;73.16;99235.41;4995194;28;20133;-81
2022/02/13 00:49:43;;;;;;;33.72;5.65;;;;;;;-7.26;73.20;99225.97;4976764;28;20133;-81
2022/02/13 00:52:09;;;;;;;51.17;6.57;;;;;;;-7.19;73.02;99229.38;4962166;28;20050;-82
2022/02/13 00:54:35;;;;;;;45.38;6.75;;;;;;;-7.18;72.96;99212.94;4995462;28;20116;-81
2022/02/13 00:57:02;;;;;;;21.58;5.53;;;;;;;-7.20;72.42;99220.72;4977792;28;20513;-82
2022/02/13 00:59:28;;;;;;;13.90;5.80;;;;;;;-7.33;72.62;99234.75;4977914;28;20058;-82
2022/02/13 01:01:54;;;;;;;31.75;5.60;;;;;;;-7.49;73.06;99240.94;4961817;28;20046;-82
2022/02/13 01:04:20;;;;;;;20.38;4.78;;;;;;;-7.49;73.28;99254.75;4961501;28;20097;-80
2022/02/13 01:06:46;;;;;;;63.63;8.68;;;;;;;-7.45;73.53;99250.41;4994886;28;20197;-81
2022/02/13 01:09:12;;;;;;;46.75;6.45;;;;;;;-7.40;73.49;99238.25;4961137;28;20058;-81
2022/02/13 01:11:39;;;;;;;39.03;5.43;;;;;;;-7.27;73.48;99247.63;4945858;28;20132;-81
2022/02/13 01:14:06;;;;;;;14.02;6.38;;;;;;;-7.24;73.08;99241.56;4961535;28;20046;-81
2022/02/13 01:16:32;;;;;;;12.57;6.10;;;;;;;-7.25;73.30;99251.09;4945541;28;20034;-80
2022/02/13 01:18:59;;;;;;;15.27;6.40;;;;;;;-7.17;72.98;99261.41;4977569;28;20053;-80
2022/02/13 01:21:25;;;;;;;10.70;5.70;;;;;;;-7.13;72.86;99258.75;4993680;28;20050;-81
2022/02/13 01:23:52;;;;;;;11.68;5.80;;;;;;;-7.06;72.74;99261.31;4961594;28;20050;-81
2022/02/13 01:26:19;;;;;;;11.82;6.07;;;;;;;-7.04;72.88;99280.31;4977455;28;20084;-79
2022/02/13 01:28:46;;;;;;;11.05;6.10;;;;;;;-6.99;72.59;99278.56;4929584;28;20042;-81
2022/02/13 01:31:12;;;;;;;11.90;6.10;;;;;;;-6.97;72.31;99259.44;4977352;28;20580;-81
2022/02/13 01:33:38;;;;;;;10.63;5.68;;;;;;;-6.98;72.15;99259.47;4992955;28;20050;-80
2022/02/13 01:36:05;;;;;;;15.75;6.43;;;;;;;-6.95;72.22;99254.25;4945205;28;20548;-81
2022/02/13 01:38:31;;;;;;;11.52;5.68;;;;;;;-6.98;71.99;99273.34;4961051;28;20034;-81
2022/02/13 01:40:57;;;;;;;12.45;6.00;;;;;;;-7.00;72.19;99267.28;4976943;28;20517;-80
2022/02/13 01:43:25;;;;;;;13.07;6.43;;;;;;;-6.87;72.10;99263.69;4993377;28;20055;-81
2022/02/13 01:45:51;;;;;;;9.25;5.18;;;;;;;-6.79;71.81;99252.34;4961233;28;20057;-80
2022/02/13 01:48:17;;;;;;;16.33;6.50;;;;;;;-6.79;71.95;99266.19;4944905;28;20045;-83
2022/02/13 01:50:47;;;;;;;12.00;6.45;;;;;;;-6.84;71.93;99270.59;4992971;28;20516;-82
2022/02/13 01:53:13;;;;;;;12.82;5.32;;;;;;;-6.81;71.98;99265.34;4977622;28;20042;-81
2022/02/13 01:55:39;;;;;;;11.52;5.53;;;;;;;-6.72;72.41;99265.25;4961424;28;20508;-81
2022/02/13 01:58:05;;;;;;;8.75;5.13;;;;;;;-6.71;71.72;99281.69;4953037;28;20052;-80
2022/02/13 02:00:31;;;;;;;11.13;6.07;;;;;;;-6.78;72.14;99291.28;4970071;28;20122;-80
2022/02/13 02:02:57;;;;;;;11.30;6.30;;;;;;;-6.70;72.03;99281.66;4978121;28;20092;-82
2022/02/13 02:05:23;;;;;;;13.05;6.25;;;;;;;-6.65;71.92;99264.31;4963465;28;20077;-82
2022/02/13 02:07:50;;;;;;;14.63;6.47;;;;;;;-6.58;71.88;99277.19;4932896;28;20041;-81
2022/02/13 02:10:21;;;;;;;10.93;5.70;;;;;;;-6.52;71.87;99279.75;4996285;28;20505;-80
2022/02/13 02:12:48;;;;;;;11.35;5.75;;;;;;;-6.42;72.00;99279.63;4930928;28;20494;-80
2022/02/13 02:15:13;;;;;;;9.25;5.25;;;;;;;-6.35;71.98;99272.59;4977587;28;20512;-80
2022/02/13 02:17:39;;;;;;;18.58;5.43;;;;;;;-6.31;71.83;99270.81;4961562;28;20060;-84
2022/02/13 02:20:06;;;;;;;11.25;5.57;;;;;;;-6.20;71.79;99274.13;4978384;28;20042;-82
2022/02/13 02:22:33;;;;;;;7.32;4.72;;;;;;;-6.09;71.42;99271.38;4994419;28;20042;-81
2022/02/13 02:24:59;;;;;;;10.40;5.45;;;;;;;-5.95;71.69;99266.81;4994582;28;20065;-83
2022/02/13 02:27:25;;;;;;;8.77;5.38;;;;;;;-5.86;71.11;99259.72;4961586;28;20080;-84
2022/02/13 02:29:51;;;;;;;10.00;5.35;;;;;;;-5.79;70.63;99259.59;4993719;28;20085;-86
2022/02/13 02:32:17;;;;;;;10.07;5.28;;;;;;;-5.77;70.41;99253.50;4993437;28;20042;-85
2022/02/13 02:34:43;;;;;;;7.22;4.55;;;;;;;-5.83;69.91;99260.53;4994164;28;20093;-83
2022/02/13 02:37:09;;;;;;;8.43;4.88;;;;;;;-5.99;70.46;99253.00;4960126;28;20038;-80
2022/02/13 02:39:35;;;;;;;9.82;5.05;;;;;;;-5.97;70.38;99245.19;4960255;28;20066;-81
2022/02/13 02:42:01;;;;;;;8.70;4.78;;;;;;;-5.96;70.55;99259.91;4960337;28;20045;-82
2022/02/13 02:44:27;;;;;;;7.20;4.35;;;;;;;-5.93;70.68;99246.84;4993444;28;20050;-82
2022/02/13 02:46:54;;;;;;;8.80;5.38;;;;;;;-5.84;70.77;99236.25;4992482;28;20103;-85
2022/02/13 02:49:19;;;;;;;6.78;4.35;;;;;;;-5.87;70.78;99236.31;4976439;28;20097;-82
2022/02/13 02:51:46;;;;;;;5.88;3.78;;;;;;;-5.87;70.41;99237.19;4992795;28;20046;-83
2022/02/13 02:54:12;;;;;;;6.70;4.38;;;;;;;-5.87;70.55;99246.72;4995380;28;20050;-83
2022/02/13 02:56:38;;;;;;;8.70;4.70;;;;;;;-5.98;70.61;99244.34;5004092;28;20045;-81
2022/02/13 02:59:04;;;;;;;9.50;4.68;;;;;;;-5.98;70.81;99251.25;4988356;28;20074;-82
2022/02/13 03:01:30;;;;;;;9.40;4.97;;;;;;;-5.95;71.17;99243.41;5007926;28;20054;-80
2022/02/13 03:03:56;;;;;;;9.02;4.85;;;;;;;-5.95;71.11;99233.00;4985364;28;20140;-83
2022/02/13 03:06:23;;;;;;;7.03;4.47;;;;;;;-5.78;71.37;99237.94;4994567;28;20133;-82
2022/02/13 03:08:49;;;;;;;9.05;5.03;;;;;;;-5.81;71.20;99236.22;4994386;28;20038;-81
2022/02/13 03:11:15;;;;;;;8.70;4.93;;;;;;;-5.81;71.34;99235.34;4977596;28;20049;-81
2022/02/13 03:13:41;;;;;;;6.90;4.82;;;;;;;-5.80;71.32;99242.28;4997712;28;20046;-80
2022/02/13 03:16:08;;;;;;;9.60;5.10;;;;;;;-5.74;71.45;99232.63;4980370;28;20050;-80
2022/02/13 03:18:34;;;;;;;8.95;5.03;;;;;;;-5.52;71.53;99232.28;4979719;28;20053;-80
2022/02/13 03:21:00;;;;;;;7.30;4.38;;;;;;;-5.44;71.35;99215.63;4994674;28;20042;-79
2022/02/13 03:23:27;;;;;;;12.38;5.63;;;;;;;-5.27;71.19;99224.88;4945470;28;20042;-82
2022/02/13 03:25:54;;;;;;;10.73;5.85;;;;;;;-5.29;70.82;99227.53;4979153;28;20050;-81
2022/02/13 03:28:19;;;;;;;11.80;6.32;;;;;;;-5.22;71.10;99241.31;4963100;28;20526;-83
2022/02/13 03:30:45;;;;;;;12.82;6.35;;;;;;;-5.27;71.34;99222.28;4996309;28;20050;-80
2022/02/13 03:33:11;;;;;;;11.73;6.32;;;;;;;-5.17;71.36;99229.06;4996100;28;20074;-80
2022/02/13 03:35:38;;;;;;;11.23;6.10;;;;;;;-5.06;70.88;99216.69;4994880;28;20501;-82
2022/02/13 03:38:04;;;;;;;18.33;6.75;;;;;;;-5.00;71.17;99218.31;4995298;28;20552;-81
2022/02/13 03:40:31;;;;;;;11.25;6.00;;;;;;;-4.87;70.85;99227.63;4995246;28;20050;-82
2022/02/13 03:42:57;;;;;;;15.02;6.05;;;;;;;-4.78;70.64;99227.41;4978675;28;20383;-78
2022/02/13 03:45:23;;;;;;;12.13;6.28;;;;;;;-4.73;70.64;99228.22;4994846;28;20498;-78
2022/02/13 03:47:49;;;;;;;16.00;6.38;;;;;;;-4.73;70.31;99214.31;4963323;28;20038;-82
2022/02/13 03:50:15;;;;;;;13.18;6.60;;;;;;;-4.75;70.60;99216.94;4979143;28;20486;-80
2022/02/13 03:52:41;;;;;;;16.90;7.05;;;;;;;-4.70;70.63;99225.53;4996824;28;20128;-85
2022/02/13 03:55:08;;;;;;;19.55;7.47;;;;;;;-4.65;70.67;99223.69;4962898;28;20445;-81
2022/02/13 03:57:34;;;;;;;16.58;7.45;;;;;;;-4.55;70.84;99221.75;4996667;28;20413;-80
2022/02/13 04:00:01;;;;;;;15.27;7.63;;;;;;;-4.47;70.57;99224.22;4978602;28;20124;-81
2022/02/13 04:02:37;;;;;;;15.82;8.48;;;;;;;-4.32;70.37;99230.84;4996180;28;20502;-80
2022/02/13 04:05:04;;;;;;;29.77;9.07;;;;;;;-4.29;70.10;99221.16;4963153;28;20054;-80
2022/02/13 04:07:30;;;;;;;16.25;7.70;;;;;;;-4.29;69.66;99225.53;4978586;28;20133;-82
2022/02/13 04:09:56;;;;;;;30.23;9.23;;;;;;;-4.32;69.76;99220.41;4993947;28;20077;-82
2022/02/13 04:12:25;;;;;;;21.95;9.48;;;;;;;-4.21;70.05;99215.81;4962873;28;20069;-80
2022/02/13 04:14:52;;;;;;;22.17;9.32;;;;;;;-4.14;69.48;99214.75;4963127;28;20054;-83
2022/02/13 04:17:19;;;;;;;44.72;11.88;;;;;;;-4.07;69.79;99216.34;4994602;28;20465;-81
2022/02/13 04:19:45;;;;;;;27.50;11.57;;;;;;;-4.01;69.49;99210.13;4930616;28;20394;-81
2022/02/13 04:22:13;;;;;;;28.48;11.70;;;;;;;-3.96;69.56;99224.78;4995450;28;20421;-82
2022/02/13 04:24:38;;;;;;;31.08;12.38;;;;;;;-3.90;69.11;99213.34;4995508;28;20056;-82
2022/02/13 04:27:05;;;;;;;40.72;11.38;;;;;;;-3.87;69.28;99226.34;4994607;28;20413;-83
2022/02/13 04:29:31;;;;;;;39.25;13.68;;;;;;;-3.77;69.27;99213.91;4995667;28;20046;-86
2022/02/13 04:31:57;;;;;;;47.75;14.07;;;;;;;-3.71;69.06;99214.63;4994445;28;20038;-84
2022/02/13 04:34:23;;;;;;;42.55;13.57;;;;;;;-3.61;68.95;99209.16;4994678;28;20081;-82
2022/02/13 04:36:49;;;;;;;61.80;15.75;;;;;;;-3.43;69.28;99214.78;4978061;28;20046;-89
2022/02/13 04:39:15;;;;;;;61.85;16.90;;;;;;;-3.34;68.67;99212.84;4962689;28;20106;-84
2022/02/13 04:41:41;;;;;;;49.65;17.60;;;;;;;-3.28;68.32;99212.69;4994287;28;20409;-85
2022/02/13 04:44:07;;;;;;;48.00;17.27;;;;;;;-3.25;68.11;99208.22;4978065;28;20490;-83
2022/02/13 04:46:33;;;;;;;39.35;15.02;;;;;;;-3.18;67.54;99211.53;4978176;28;20158;-82
2022/02/13 04:48:59;;;;;;;40.13;16.05;;;;;;;-3.12;67.69;99213.13;4995143;28;20513;-82
2022/02/13 04:51:25;;;;;;;38.88;16.25;;;;;;;-3.06;67.75;99203.38;4993727;28;20058;-82
2022/02/13 04:53:51;;;;;;;47.15;17.75;;;;;;;-2.95;67.50;99216.16;4977985;28;20046;-81
2022/02/13 04:56:17;;;;;;;49.58;19.52;;;;;;;-2.94;67.35;99212.63;4994232;28;20092;-79
2022/02/13 04:58:43;;;;;;;51.53;19.00;;;;;;;-2.93;67.60;99216.97;4995236;28;20190;-80
2022/02/13 05:01:09;;;;;;;61.05;21.52;;;;;;;-2.88;67.30;99217.69;4945677;28;20069;-81
2022/02/13 05:03:36;;;;;;;63.63;20.23;;;;;;;-2.86;67.07;99212.41;4993636;28;20038;-80
2022/02/13 05:06:02;;;;;;;59.72;19.45;;;;;;;-2.77;66.88;99215.66;4993696;28;20525;-80
2022/02/13 05:08:28;;;;;;;50.38;20.05;;;;;;;-2.70;66.70;99214.56;4961405;28;20137;-79
2022/02/13 05:10:54;;;;;;;44.70;17.60;;;;;;;-2.64;66.67;99207.44;4977419;28;20097;-82
2022/02/13 05:13:20;;;;;;;48.90;17.00;;;;;;;-2.54;66.69;99211.53;4977796;28;20485;-81
2022/02/13 05:15:46;;;;;;;36.92;14.77;;;;;;;-2.49;66.62;99220.09;4993519;28;20050;-81
2022/02/13 05:18:13;;;;;;;48.55;14.07;;;;;;;-2.52;66.53;99207.06;4961521;28;20476;-80
2022/02/13 05:20:39;;;;;;;37.72;14.63;;;;;;;-2.49;66.43;99209.59;4961350;28;20042;-81
2022/02/13 05:23:04;;;;;;;40.65;15.18;;;;;;;-2.49;66.23;99207.00;4961056;28;20042;-81
2022/02/13 05:25:30;;;;;;;48.67;16.42;;;;;;;-2.50;66.28;99216.59;4961148;28;20105;-82
2022/02/13 05:27:57;;;;;;;64.97;18.08;;;;;;;-2.49;66.70;99197.38;4961143;28;20053;-80
2022/02/13 05:30:23;;;;;;;62.22;18.02;;;;;;;-2.26;66.61;99212.44;4977013;28;20042;-81
2022/02/13 05:32:49;;;;;;;56.13;18.35;;;;;;;-2.24;65.86;99213.22;4977383;28;20053;-81
2022/02/13 05:35:15;;;;;;;49.45;16.25;;;;;;;-2.13;66.28;99212.06;4976891;28;20118;-79
2022/02/13 05:37:41;;;;;;;49.08;14.73;;;;;;;-2.29;65.43;99209.03;5000001;28;20097;-80
2022/02/13 05:40:07;;;;;;;56.63;15.80;;;;;;;-2.25;65.76;99210.66;5006336;28;20050;-80
2022/02/13 05:42:34;;;;;;;61.70;18.35;;;;;;;-2.26;66.19;99222.91;4986571;28;20034;-83
2022/02/13 05:45:00;;;;;;;69.97;19.08;;;;;;;-2.24;66.35;99210.59;4964166;28;20050;-83
2022/02/13 05:47:26;;;;;;;87.03;21.33;;;;;;;-2.25;66.33;99203.66;4994025;28;20053;-83
2022/02/13 05:49:52;;;;;;;85.57;20.35;;;;;;;-2.15;66.01;99201.59;4994139;28;20042;-83
2022/02/13 05:52:18;;;;;;;102.70;23.83;;;;;;;-1.91;66.39;99205.25;4992847;28;20409;-81
2022/02/13 05:54:44;;;;;;;97.55;24.15;;;;;;;-1.88;66.23;99193.78;4994262;28;20069;-79
2022/02/13 05:57:10;;;;;;;113.40;26.33;;;;;;;-1.68;65.76;99199.25;4994005;28;20124;-80
2022/02/13 05:59:37;;;;;;;112.32;23.77;;;;;;;-1.44;65.26;99202.81;4944782;28;20038;-80
2022/02/13 06:02:03;;;;;;;120.25;26.90;;;;;;;-1.40;65.18;99188.69;4992571;28;20073;-80
2022/02/13 06:04:29;;;;;;;104.43;26.15;;;;;;;-1.15;65.01;99200.97;4960347;28;20128;-84
2022/02/13 06:06:55;;;;;;;93.22;26.20;;;;;;;-1.02;64.22;99194.38;4960589;28;20137;-81
2022/02/13 06:09:22;;;;;;;94.38;23.33;;;;;;;-1.02;64.02;99191.75;4993387;28;20124;-82
2022/02/13 06:11:48;;;;;;;81.55;24.27;;;;;;;-0.90;63.55;99199.22;4992632;28;20057;-82
2022/02/13 06:14:14;;;;;;;90.47;26.85;;;;;;;-0.94;63.09;99210.72;4976757;28;20497;-81
2022/02/13 06:16:40;;;;;;;94.00;27.35;;;;;;;-1.00;63.46;99205.69;4992678;28;20092;-81
2022/02/13 06:19:06;;;;;;;120.28;31.60;;;;;;;-0.87;63.55;99203.47;4992398;28;20188;-82
2022/02/13 06:21:35;;;;;;;109.03;30.77;;;;;;;-0.77;62.68;99205.72;4977075;28;20042;-81
2022/02/13 06:24:01;;;;;;;110.28;29.50;;;;;;;-0.81;62.47;99209.38;4976566;28;20081;-84
2022/02/13 06:26:27;;;;;;;112.07;31.13;;;;;;;-0.94;62.68;99202.88;4976371;28;20529;-81
2022/02/13 06:28:55;;;;;;;106.50;33.08;;;;;;;-0.71;63.49;99206.41;4994751;28;20603;-80
2022/02/13 06:31:21;;;;;;;112.70;30.73;;;;;;;-0.68;62.98;99199.25;4960672;28;20129;-83
2022/02/13 06:33:47;;;;;;;97.25;30.13;;;;;;;-0.65;63.27;99203.56;4944737;28;20491;-81
2022/02/13 06:36:13;;;;;;;93.85;25.50;;;;;;;-0.58;62.81;99199.78;4976393;28;20058;-84
2022/02/13 06:38:38;;;;;;;68.38;22.77;;;;;;;-0.61;62.60;99199.91;4992520;28;20066;-81
2022/02/13 06:41:05;;;;;;;51.03;19.05;;;;;;;-0.59;62.59;99201.56;4992002;28;20498;-82
2022/02/13 06:43:32;;;;;;;49.25;19.50;;;;;;;-0.61;62.89;99199.91;4993230;28;20096;-81
2022/02/13 06:45:59;;;;;;;42.40;17.17;;;;;;;-0.90;62.97;99196.59;4977303;28;20092;-79
2022/02/13 06:48:29;;;;;;;47.15;18.80;;;;;;;-0.70;63.04;99197.63;4948279;28;20517;-80
2022/02/13 06:50:55;;;;;;;46.45;18.83;;;;;;;-0.46;63.11;99190.59;4964272;28;20537;-83
2022/02/13 06:53:22;;;;;;;46.00;18.52;;;;;;;-0.31;62.61;99197.91;4964764;28;20066;-80
2022/02/13 06:55:49;;;;;;;44.67;18.83;;;;;;;-0.12;62.27;99190.16;4995845;28;20405;-82
2022/02/13 06:58:16;;;;;;;37.67;16.23;;;;;;;0.13;61.59;99192.69;4996143;28;20042;-80
2022/02/13 07:00:43;;;;;;;35.17;15.93;;;;;;;0.27;61.04;99193.00;4979791;28;20042;-83
2022/02/13 07:03:10;;;;;;;32.60;15.82;;;;;;;0.50;60.28;99196.47;4980592;28;20055;-81
2022/02/13 07:05:36;;;;;;;42.03;17.10;;;;;;;0.71;59.82;99193.78;4995864;28;20038;-81
2022/02/13 07:08:02;;;;;;;30.42;14.07;;;;;;;0.62;58.85;99196.78;4963676;28;20061;-82
2022/02/13 07:10:28;;;;;;;34.85;16.38;;;;;;;0.59;59.31;99191.66;4997038;28;20054;-82
2022/02/13 07:12:54;;;;;;;32.30;14.48;;;;;;;0.70;59.19;99199.97;4963790;28;20052;-81
2022/02/13 07:15:20;;;;;;;30.63;14.38;;;;;;;0.64;58.32;99194.97;4979538;28;20417;-82
2022/02/13 07:17:46;;;;;;;30.00;15.18;;;;;;;0.47;59.48;99189.53;4995783;28;20125;-81
2022/02/13 07:20:13;;;;;;;34.03;14.90;;;;;;;0.53;59.18;99181.41;4979570;28;20557;-81
2022/02/13 07:22:39;;;;;;;37.20;17.30;;;;;;;0.77;59.38;99199.72;4996870;28;20042;-81
2022/02/13 07:25:08;;;;;;;41.25;18.90;;;;;;;0.93;59.03;99191.06;4963690;28;20046;-81
2022/02/13 07:27:35;;;;;;;38.78;17.83;;;;;;;0.85;57.99;99198.44;4980003;28;20042;-81
2022/02/13 07:30:02;;;;;;;45.47;19.33;;;;;;;1.11;58.52;99199.97;4947816;28;20042;-81
2022/02/13 07:32:30;;;;;;;37.55;17.90;;;;;;;1.10;57.60;99192.13;4996284;28;20104;-81
2022/02/13 07:34:57;;;;;;;39.70;18.05;;;;;;;1.32;57.92;99198.16;4964015;28;20457;-82
2022/02/13 07:37:23;;;;;;;35.45;16.70;;;;;;;1.32;57.19;99197.31;4963745;28;20061;-81
2022/02/13 07:39:50;;;;;;;32.65;16.13;;;;;;;1.38;56.64;99197.03;4984919;28;20069;-83
2022/02/13 07:42:17;;;;;;;34.67;16.42;;;;;;;1.47;56.21;99196.63;4988276;28;20077;-82
2022/02/13 07:44:44;;;;;;;33.53;14.77;;;;;;;1.35;56.53;99202.41;4986973;28;20092;-82
2022/02/13 07:47:11;;;;;;;25.05;12.43;;;;;;;1.57;56.21;99186.50;5006642;28;20050;-83
2022/02/13 07:49:37;;;;;;;20.55;11.07;;;;;;;1.48;56.33;99190.44;5009172;28;20034;-82
2022/02/13 07:52:03;;;;;;;15.80;9.13;;;;;;;1.35;56.21;99189.25;4996420;28;20108;-80
2022/02/13 07:54:29;;;;;;;19.13;9.57;;;;;;;1.09;56.39;99196.56;4979580;28;20600;-81
2022/02/13 07:56:55;;;;;;;14.55;7.07;;;;;;;1.15;56.43;99191.00;4994334;28;20224;-82
2022/02/13 07:59:22;;;;;;;19.45;8.45;;;;;;;0.93;56.87;99190.22;4994741;28;20502;-81
2022/02/13 08:01:48;;;;;;;14.25;8.05;;;;;;;0.86;57.17;99184.38;4978908;28;20497;-80
2022/02/13 08:04:15;;;;;;;13.88;7.93;;;;;;;0.80;57.73;99194.31;4946939;28;20455;-83
2022/02/13 08:06:41;;;;;;;21.45;7.82;;;;;;;0.92;57.78;99175.38;4978962;28;20501;-82
2022/02/13 08:09:07;;;;;;;15.15;8.00;;;;;;;0.75;58.00;99180.50;4962438;28;20042;-83
2022/02/13 08:11:33;;;;;;;16.80;8.40;;;;;;;0.97;58.32;99181.28;4946693;28;20141;-82
2022/02/13 08:13:59;;;;;;;13.68;8.52;;;;;;;1.09;57.84;99180.75;4962576;28;20588;-82
2022/02/13 08:16:25;;;;;;;14.75;8.15;;;;;;;0.88;57.27;99182.53;4978353;28;20046;-83
2022/02/13 08:18:51;;;;;;;11.95;6.57;;;;;;;0.79;57.71;99176.81;4978316;28;20043;-80
2022/02/13 08:21:18;;;;;;;11.40;6.85;;;;;;;0.55;58.14;99169.03;4994662;28;20060;-80
2022/02/13 08:23:44;;;;;;;14.88;7.18;;;;;;;0.47;58.68;99176.41;4978340;28;20049;-80
2022/02/13 08:26:10;;;;;;;8.38;5.93;;;;;;;0.37;58.63;99175.06;4994486;28;20042;-81
2022/02/13 08:28:36;;;;;;;11.05;6.75;;;;;;;0.26;59.73;99172.00;4994410;28;20139;-80
2022/02/13 08:31:02;;;;;;;8.80;5.63;;;;;;;0.28;59.14;99170.19;4994669;28;20042;-81
2022/02/13 08:33:29;;;;;;;8.93;6.25;;;;;;;0.15;58.99;99173.31;4978096;28;20421;-79
2022/02/13 08:35:55;;;;;;;8.93;6.15;;;;;;;0.16;59.55;99171.56;4995642;28;20081;-81
2022/02/13 08:38:23;;;;;;;9.15;5.93;;;;;;;0.31;59.19;99176.19;4995200;28;20042;-81
2022/02/13 08:40:49;;;;;;;9.00;6.15;;;;;;;0.26;59.02;99164.13;4994274;28;20093;-81
2022/02/13 08:43:15;;;;;;;9.70;6.03;;;;;;;0.32;59.08;99163.88;4962612;28;20035;-82
2022/02/13 08:45:41;;;;;;;8.23;5.63;;;;;;;0.47;58.71;99165.88;4978492;28;20048;-80
2022/02/13 08:48:07;;;;;;;7.55;5.50;;;;;;;0.73;58.01;99167.41;4994818;28;20049;-81
2022/02/13 08:50:33;;;;;;;8.63;5.93;;;;;;;0.78;57.45;99159.31;4930772;28;20119;-81
2022/02/13 08:52:59;;;;;;;8.65;5.72;;;;;;;0.66;57.69;99156.28;4978199;28;20054;-81
2022/02/13 08:55:25;;;;;;;10.93;5.55;;;;;;;0.83;57.63;99152.06;4996018;28;20491;-81
2022/02/13 08:57:51;;;;;;;7.57;5.43;;;;;;;1.09;57.54;99157.06;4995133;28;20418;-81
2022/02/13 09:00:18;;;;;;;8.15;5.45;;;;;;;1.23;56.67;99160.84;4994890;28;20054;-82
2022/02/13 09:02:44;;;;;;;9.63;6.22;;;;;;;1.15;56.27;99159.41;4978206;28;20482;-80
2022/02/13 09:05:10;;;;;;;8.23;4.95;;;;;;;1.17;55.89;99152.31;4961454;28;20497;-82
2022/02/13 09:07:40;;;;;;;9.13;5.90;;;;;;;0.96;56.16;99156.75;4961384;28;20136;-81
2022/02/13 09:10:11;;;;;;;8.80;5.60;;;;;;;0.96;56.93;99153.25;4993331;28;20058;-80
2022/02/13 09:12:38;;;;;;;6.97;5.20;;;;;;;1.20;56.50;99144.28;4962760;28;20054;-81
2022/02/13 09:15:05;;;;;;;8.88;5.75;;;;;;;1.20;55.86;99144.28;4961447;28;20050;-81
2022/02/13 09:17:31;;;;;;;8.75;5.90;;;;;;;1.40;56.30;99150.41;4982639;28;20050;-82
2022/02/13 09:19:57;;;;;;;9.25;5.90;;;;;;;1.68;54.81;99153.47;4981342;28;20049;-81
2022/02/13 09:22:23;;;;;;;7.88;5.60;;;;;;;1.68;54.94;99132.38;5004046;28;20050;-81
2022/02/13 09:24:49;;;;;;;9.48;5.90;;;;;;;1.95;54.90;99134.63;4983181;28;20055;-81
2022/02/13 09:27:15;;;;;;;9.30;5.97;;;;;;;2.19;53.55;99133.44;4980235;28;20038;-80
2022/02/13 09:29:42;;;;;;;6.25;4.80;;;;;;;2.14;53.63;99140.75;4977181;28;20046;-80
2022/02/13 09:32:17;;;;;;;7.38;4.53;;;;;;;2.06;53.58;99132.31;5172770;27;19926;-81
2022/02/13 09:34:43;;;;;;;8.48;4.95;;;;;;;1.83;53.43;99124.69;5099690;27;20125;-81
2022/02/13 09:37:09;;;;;;;6.13;5.03;;;;;;;1.94;54.08;99138.19;5123598;28;20118;-82
2022/02/13 09:39:35;;;;;;;6.35;4.57;;;;;;;1.73;53.23;99131.31;5113604;28;20050;-82
2022/02/13 09:42:01;;;;;;;8.63;6.18;;;;;;;1.60;54.35;99131.91;5131589;28;20050;-81
2022/02/13 09:44:27;;;;;;;17.83;6.25;;;;;;;1.59;54.78;99143.38;5131730;28;20035;-82
2022/02/13 09:46:53;;;;;;;7.07;4.75;;;;;;;1.33;54.72;99130.56;5096374;28;20039;-81
2022/02/13 09:49:19;;;;;;;8.23;5.55;;;;;;;1.54;55.23;99136.59;5095943;28;20339;-82
2022/02/13 09:51:45;;;;;;;8.05;5.38;;;;;;;1.48;54.63;99132.47;5096232;28;20509;-82
2022/02/13 09:54:12;;;;;;;8.80;5.60;;;;;;;1.29;54.87;99131.63;5113082;28;20035;-81
2022/02/13 09:56:38;;;;;;;6.65;4.55;;;;;;;1.03;55.29;99133.63;5062599;28;20032;-81
2022/02/13 09:59:04;;;;;;;7.97;5.07;;;;;;;0.95;55.46;99120.81;5095832;28;20031;-81
2022/02/13 10:01:42;;;;;;;8.48;5.85;;;;;;;0.78;56.22;99123.34;5112553;28;20047;-81
2022/02/13 10:04:09;;;;;;;7.32;5.05;;;;;;;0.92;56.58;99120.94;5079211;28;20493;-81
2022/02/13 10:06:36;;;;;;;8.13;5.47;;;;;;;0.96;56.51;99126.94;5096215;28;20031;-82
2022/02/13 10:09:03;;;;;;;7.68;5.43;;;;;;;1.11;56.40;99120.13;5095623;28;20531;-82
2022/02/13 10:11:33;;;;;;;7.72;5.00;;;;;;;1.00;55.58;99122.38;5095839;28;20039;-83
2022/02/13 10:14:05;;;;;;;9.52;5.38;;;;;;;0.95;56.19;99117.34;5112927;28;20040;-82
2022/02/13 10:16:33;;;;;;;10.20;5.85;;;;;;;0.85;56.53;99123.94;5078452;28;20031;-82
2022/02/13 10:19:01;;;;;;;8.50;6.00;;;;;;;0.85;56.60;99109.00;5095632;28;20031;-83
2022/02/13 10:21:32;;;;;;;9.50;6.35;;;;;;;0.88;56.71;99102.75;5096466;28;20043;-84
2022/02/13 10:24:18;;;;;;;9.95;6.20;;;;;;;0.88;56.92;99118.53;5123764;28;20038;-83
2022/02/13 10:26:45;;;;;;;9.52;6.00;;;;;;;0.68;57.30;99112.38;5112559;28;20031;-82
2022/02/13 10:29:11;;;;;;;8.32;5.72;;;;;;;0.69;56.99;99100.91;5113966;28;20054;-82
2022/02/13 10:31:41;;;;;;;9.32;6.20;;;;;;;0.72;57.55;99115.72;5124244;28;20068;-81
2022/02/13 10:34:07;;;;;;;12.02;6.18;;;;;;;0.59;57.17;99112.75;5112978;28;20047;-83
2022/02/13 10:36:46;;;;;;;11.07;6.78;;;;;;;0.64;57.87;99105.53;5131289;27;20031;-83
2022/02/13 10:39:20;;;;;;;9.80;6.43;;;;;;;0.80;57.07;99102.22;5079366;28;20027;-81
2022/02/13 10:41:46;;;;;;;10.07;6.80;;;;;;;0.83;57.71;99104.69;5075485;28;20038;-82
2022/02/13 10:44:12;;;;;;;10.88;6.63;;;;;;;0.70;57.03;99093.88;5098557;28;20039;-82
2022/02/13 10:46:39;;;;;;;10.88;6.50;;;;;;;0.64;57.13;99102.91;5116649;28;20478;-83
2022/02/13 10:49:07;;;;;;;11.10;7.55;;;;;;;0.75;57.10;99101.56;5065183;28;20050;-83
2022/02/13 10:51:33;;;;;;;12.75;7.18;;;;;;;0.71;57.20;99104.34;5064281;28;20372;-83
2022/02/13 10:53:59;;;;;;;11.73;7.40;;;;;;;0.63;57.88;99103.81;5064360;28;20061;-82
2022/02/13 10:56:25;;;;;;;9.70;6.95;;;;;;;0.60;57.93;99101.34;5064885;28;20043;-83
2022/02/13 10:58:55;;;;;;;10.05;7.32;;;;;;;0.54;58.16;99098.09;5047925;28;20478;-83
2022/02/13 11:01:25;;;;;;;9.98;6.93;;;;;;;0.55;57.99;99099.81;5065859;28;20039;-82
2022/02/13 11:03:56;;;;;;;9.70;6.65;;;;;;;0.48;58.08;99096.56;5031904;28;20027;-81
2022/02/13 11:06:22;;;;;;;9.98;7.18;;;;;;;0.42;58.23;99102.13;5081413;28;20521;-83
2022/02/13 11:08:56;;;;;;;10.40;6.85;;;;;;;0.32;58.08;99092.91;5081203;28;20035;-81
2022/02/13 11:11:22;;;;;;;12.05;7.53;;;;;;;0.30;58.42;99113.13;5064348;28;20031;-82
2022/02/13 11:13:48;;;;;;;14.55;7.93;;;;;;;0.04;59.28;99112.47;5097961;28;20036;-82
2022/02/13 11:16:29;;;;;;;12.93;7.80;;;;;;;0.08;59.42;99108.78;5047872;28;20065;-81
2022/02/13 11:19:02;;;;;;;13.15;7.90;;;;;;;-0.02;59.66;99105.66;5080972;28;20047;-81
2022/02/13 11:21:31;;;;;;;17.10;9.30;;;;;;;0.09;59.57;99102.59;5064540;28;20489;-81
2022/02/13 11:23:58;;;;;;;9.82;6.78;;;;;;;0.01;59.40;99102.06;5115651;28;20458;-81